sensor_id;sensor_type;location;lat;lon;timestamp;pressure;altitude;pressure_sealevel;temperature;humidity
57232;BME280;43488;46.934;8.276;2022-12-26T00:01:23;96834.41;;;4.72;100.00
57232;BME280;43488;46.934;8.276;2022-12-26T00:03:51;96842.25;;;4.72;100.00
57232;BME280;43488;46.934;8.276;2022-12-26T00:06:23;96837.84;;;4.64;100.00
57232;BME280;43488;46.934;8.276;2022-12-26T00:08:52;96842.41;;;4.70;100.00
57232;BME280;43488;46.934;8.276;2022-12-26T00:11:23;96839.00;;;4.70;100.00
57232;BME280;43488;46.934;8.276;2022-12-26T00:13:57;96838.19;;;4.69;100.00
57232;BME280;43488;46.934;8.276;2022-12-26T00:16:25;96842.56;;;4.61;100.00
57232;BME280;43488;46.934;8.276;2022-12-26T00:18:53;96836.22;;;4.63;100.00
57232;BME280;43488;46.934;8.276;2022-12-26T00:21:22;96836.69;;;4.50;100.00
57232;BME280;43488;46.934;8.276;2022-12-26T00:23:55;96848.13;;;4.57;100.00
57232;BME280;43488;46.934;8.276;2022-12-26T00:26:26;96858.22;;;4.61;100.00
57232;BME280;43488;46.934;8.276;2022-12-26T00:28:54;96860.81;;;4.61;100.00
57232;BME280;43488;46.934;8.276;2022-12-26T00:31:27;96862.91;;;4.57;100.00
57232;BME280;43488;46.934;8.276;2022-12-26T00:33:55;96855.59;;;4.52;100.00
57232;BME280;43488;46.934;8.276;2022-12-26T00:36:27;96864.72;;;4.48;100.00
57232;BME280;43488;46.934;8.276;2022-12-26T00:38:59;96869.28;;;4.54;100.00
57232;BME280;43488;46.934;8.276;2022-12-26T00:41:28;96882.81;;;4.58;100.00
57232;BME280;43488;46.934;8.276;2022-12-26T00:43:56;96882.34;;;4.63;100.00
57232;BME280;43488;46.934;8.276;2022-12-26T00:46:24;96886.06;;;4.52;100.00
57232;BME280;43488;46.934;8.276;2022-12-26T00:48:52;96892.72;;;4.46;100.00
57232;BME280;43488;46.934;8.276;2022-12-26T00:51:19;96890.59;;;4.42;100.00
57232;BME280;43488;46.934;8.276;2022-12-26T00:53:47;96885.22;;;4.43;100.00
57232;BME280;43488;46.934;8.276;2022-12-26T00:56:14;96880.50;;;4.47;100.00
57232;BME280;43488;46.934;8.276;2022-12-26T00:58:42;96879.03;;;4.44;100.00
57232;BME280;43488;46.934;8.276;2022-12-26T01:01:19;96873.47;;;4.31;100.00
57232;BME280;43488;46.934;8.276;2022-12-26T01:03:49;96870.72;;;4.33;100.00
57232;BME280;43488;46.934;8.276;2022-12-26T01:06:17;96872.19;;;4.35;100.00
57232;BME280;43488;46.934;8.276;2022-12-26T01:08:44;96861.13;;;4.41;100.00
57232;BME280;43488;46.934;8.276;2022-12-26T01:11:14;96861.13;;;4.41;100.00
57232;BME280;43488;46.934;8.276;2022-12-26T01:13:42;96864.53;;;4.34;100.00
57232;BME280;43488;46.934;8.276;2022-12-26T01:16:09;96861.44;;;4.30;100.00
57232;BME280;43488;46.934;8.276;2022-12-26T01:18:37;96870.06;;;4.39;100.00
57232;BME280;43488;46.934;8.276;2022-12-26T01:21:09;96864.97;;;4.29;100.00
57232;BME280;43488;46.934;8.276;2022-12-26T01:23:37;96863.31;;;4.20;100.00
57232;BME280;43488;46.934;8.276;2022-12-26T01:26:05;96863.16;;;4.13;100.00
57232;BME280;43488;46.934;8.276;2022-12-26T01:28:33;96879.25;;;4.09;100.00
57232;BME280;43488;46.934;8.276;2022-12-26T01:31:03;96877.59;;;3.99;100.00
57232;BME280;43488;46.934;8.276;2022-12-26T01:33:32;96890.28;;;3.94;100.00
57232;BME280;43488;46.934;8.276;2022-12-26T01:35:59;96884.75;;;3.97;100.00
57232;BME280;43488;46.934;8.276;2022-12-26T01:38:27;96884.41;;;3.92;100.00
57232;BME280;43488;46.934;8.276;2022-12-26T01:40:54;96894.53;;;3.95;100.00
57232;BME280;43488;46.934;8.276;2022-12-26T01:43:55;96884.09;;;3.95;100.00
57232;BME280;43488;46.934;8.276;2022-12-26T01:46:38;96888.94;;;3.90;100.00
57232;BME280;43488;46.934;8.276;2022-12-26T01:49:19;96880.69;;;3.95;100.00
57232;BME280;43488;46.934;8.276;2022-12-26T01:51:55;96880.00;;;3.93;100.00
57232;BME280;43488;46.934;8.276;2022-12-26T01:54:23;96876.59;;;3.92;100.00
57232;BME280;43488;46.934;8.276;2022-12-26T01:56:53;96874.34;;;3.97;100.00
57232;BME280;43488;46.934;8.276;2022-12-26T01:59:25;96875.34;;;4.05;100.00
57232;BME280;43488;46.934;8.276;2022-12-26T02:01:57;96880.41;;;4.06;100.00
57232;BME280;43488;46.934;8.276;2022-12-26T02:04:35;96875.50;;;4.03;100.00
57232;BME280;43488;46.934;8.276;2022-12-26T02:07:23;96881.19;;;3.98;100.00
57232;BME280;43488;46.934;8.276;2022-12-26T02:09:52;96885.41;;;3.99;100.00
57232;BME280;43488;46.934;8.276;2022-12-26T02:12:29;96892.78;;;4.04;100.00
57232;BME280;43488;46.934;8.276;2022-12-26T02:14:58;96894.84;;;4.00;100.00
57232;BME280;43488;46.934;8.276;2022-12-26T02:17:26;96898.16;;;4.03;100.00
57232;BME280;43488;46.934;8.276;2022-12-26T02:20:21;96899.78;;;4.04;100.00
57232;BME280;43488;46.934;8.276;2022-12-26T02:26:24;96895.13;;;3.89;100.00
57232;BME280;43488;46.934;8.276;2022-12-26T02:32:41;96901.25;;;3.72;100.00
57232;BME280;43488;46.934;8.276;2022-12-26T02:35:35;96903.03;;;3.71;100.00
57232;BME280;43488;46.934;8.276;2022-12-26T02:38:16;96892.78;;;3.70;100.00
57232;BME280;43488;46.934;8.276;2022-12-26T02:41:13;96877.47;;;3.67;100.00
57232;BME280;43488;46.934;8.276;2022-12-26T02:51:11;96881.28;;;3.55;100.00
57232;BME280;43488;46.934;8.276;2022-12-26T02:54:33;96884.56;;;3.57;100.00
57232;BME280;43488;46.934;8.276;2022-12-26T02:57:28;96879.22;;;3.58;100.00
57232;BME280;43488;46.934;8.276;2022-12-26T03:00:19;96871.56;;;3.57;100.00
57232;BME280;43488;46.934;8.276;2022-12-26T03:03:15;96882.91;;;3.56;100.00
57232;BME280;43488;46.934;8.276;2022-12-26T03:06:13;96880.47;;;3.54;100.00
57232;BME280;43488;46.934;8.276;2022-12-26T03:09:23;96881.81;;;3.58;100.00
57232;BME280;43488;46.934;8.276;2022-12-26T03:15:09;96870.59;;;3.58;100.00
57232;BME280;43488;46.934;8.276;2022-12-26T03:17:43;96862.44;;;3.61;100.00
57232;BME280;43488;46.934;8.276;2022-12-26T03:20:24;96869.59;;;3.59;100.00
57232;BME280;43488;46.934;8.276;2022-12-26T03:23:00;96879.22;;;3.58;100.00
57232;BME280;43488;46.934;8.276;2022-12-26T03:26:49;96870.38;;;3.51;100.00
57232;BME280;43488;46.934;8.276;2022-12-26T03:29:15;96880.28;;;3.48;100.00
57232;BME280;43488;46.934;8.276;2022-12-26T03:32:07;96868.03;;;3.40;100.00
57232;BME280;43488;46.934;8.276;2022-12-26T03:34:41;96876.03;;;3.47;100.00
57232;BME280;43488;46.934;8.276;2022-12-26T03:37:32;96868.53;;;3.43;100.00
57232;BME280;43488;46.934;8.276;2022-12-26T03:40:45;96872.94;;;3.43;100.00
57232;BME280;43488;46.934;8.276;2022-12-26T03:47:37;96887.72;;;3.42;100.00
57232;BME280;43488;46.934;8.276;2022-12-26T03:50:43;96883.06;;;3.54;100.00
57232;BME280;43488;46.934;8.276;2022-12-26T03:53:56;96888.13;;;3.56;100.00
57232;BME280;43488;46.934;8.276;2022-12-26T03:56:54;96896.91;;;3.55;100.00
57232;BME280;43488;46.934;8.276;2022-12-26T04:00:10;96900.47;;;3.54;100.00
57232;BME280;43488;46.934;8.276;2022-12-26T04:03:05;96895.66;;;3.59;100.00
57232;BME280;43488;46.934;8.276;2022-12-26T04:05:52;96906.31;;;3.48;100.00
57232;BME280;43488;46.934;8.276;2022-12-26T04:08:54;96895.84;;;3.39;100.00
57232;BME280;43488;46.934;8.276;2022-12-26T04:11:44;96900.69;;;3.34;100.00
57232;BME280;43488;46.934;8.276;2022-12-26T04:14:52;96907.38;;;3.37;100.00
57232;BME280;43488;46.934;8.276;2022-12-26T04:17:58;96915.97;;;3.29;100.00
57232;BME280;43488;46.934;8.276;2022-12-26T04:24:11;96920.09;;;3.40;100.00
57232;BME280;43488;46.934;8.276;2022-12-26T04:27:04;96922.31;;;3.35;100.00
57232;BME280;43488;46.934;8.276;2022-12-26T04:29:53;96926.88;;;3.33;100.00
57232;BME280;43488;46.934;8.276;2022-12-26T04:32:48;96919.94;;;3.41;100.00
57232;BME280;43488;46.934;8.276;2022-12-26T04:35:49;96918.66;;;3.46;100.00
57232;BME280;43488;46.934;8.276;2022-12-26T04:38:41;96928.78;;;3.49;100.00
57232;BME280;43488;46.934;8.276;2022-12-26T04:41:30;96926.16;;;3.49;100.00
57232;BME280;43488;46.934;8.276;2022-12-26T04:44:18;96934.09;;;3.47;100.00
57232;BME280;43488;46.934;8.276;2022-12-26T04:46:51;96936.44;;;3.50;100.00
57232;BME280;43488;46.934;8.276;2022-12-26T04:49:19;96926.63;;;3.44;100.00
57232;BME280;43488;46.934;8.276;2022-12-26T04:52:12;96925.13;;;3.41;100.00
57232;BME280;43488;46.934;8.276;2022-12-26T04:54:42;96923.66;;;3.39;100.00
57232;BME280;43488;46.934;8.276;2022-12-26T04:57:10;96936.69;;;3.39;100.00
57232;BME280;43488;46.934;8.276;2022-12-26T04:59:37;96934.56;;;3.42;100.00
57232;BME280;43488;46.934;8.276;2022-12-26T05:02:04;96935.41;;;3.43;100.00
57232;BME280;43488;46.934;8.276;2022-12-26T05:04:50;96943.19;;;3.43;100.00
57232;BME280;43488;46.934;8.276;2022-12-26T05:07:56;96954.94;;;3.47;100.00
57232;BME280;43488;46.934;8.276;2022-12-26T05:10:42;96963.88;;;3.45;100.00
57232;BME280;43488;46.934;8.276;2022-12-26T05:13:12;96949.22;;;3.43;100.00
57232;BME280;43488;46.934;8.276;2022-12-26T05:15:39;96951.81;;;3.43;100.00
57232;BME280;43488;46.934;8.276;2022-12-26T05:18:25;96958.38;;;3.48;100.00
57232;BME280;43488;46.934;8.276;2022-12-26T05:21:12;96960.00;;;3.49;100.00
57232;BME280;43488;46.934;8.276;2022-12-26T05:24:00;96957.09;;;3.52;100.00
57232;BME280;43488;46.934;8.276;2022-12-26T05:26:45;96957.75;;;3.54;100.00
57232;BME280;43488;46.934;8.276;2022-12-26T05:29:33;96957.53;;;3.47;100.00
57232;BME280;43488;46.934;8.276;2022-12-26T05:32:01;96958.59;;;3.36;100.00
57232;BME280;43488;46.934;8.276;2022-12-26T05:34:28;96957.94;;;3.34;100.00
57232;BME280;43488;46.934;8.276;2022-12-26T05:36:58;96956.63;;;3.30;100.00
57232;BME280;43488;46.934;8.276;2022-12-26T05:39:26;96962.63;;;3.31;100.00
57232;BME280;43488;46.934;8.276;2022-12-26T05:41:54;96964.03;;;3.25;100.00
57232;BME280;43488;46.934;8.276;2022-12-26T05:44:21;96954.22;;;3.19;100.00
57232;BME280;43488;46.934;8.276;2022-12-26T05:46:49;96958.78;;;3.17;100.00
57232;BME280;43488;46.934;8.276;2022-12-26T05:49:16;96958.84;;;3.07;100.00
57232;BME280;43488;46.934;8.276;2022-12-26T05:51:44;96953.16;;;3.04;100.00
57232;BME280;43488;46.934;8.276;2022-12-26T05:54:12;96957.38;;;3.05;100.00
57232;BME280;43488;46.934;8.276;2022-12-26T05:56:39;96949.72;;;3.03;100.00
57232;BME280;43488;46.934;8.276;2022-12-26T05:59:08;96960.63;;;3.07;100.00
57232;BME280;43488;46.934;8.276;2022-12-26T06:01:35;96947.47;;;3.08;100.00
57232;BME280;43488;46.934;8.276;2022-12-26T06:04:03;96950.06;;;3.08;100.00
57232;BME280;43488;46.934;8.276;2022-12-26T06:06:31;96948.44;;;3.07;100.00
57232;BME280;43488;46.934;8.276;2022-12-26T06:08:59;96939.00;;;3.06;100.00
57232;BME280;43488;46.934;8.276;2022-12-26T06:11:26;96948.00;;;3.12;100.00
57232;BME280;43488;46.934;8.276;2022-12-26T06:13:54;96958.84;;;3.07;100.00
57232;BME280;43488;46.934;8.276;2022-12-26T06:16:22;96957.06;;;3.08;100.00
57232;BME280;43488;46.934;8.276;2022-12-26T06:18:50;96951.88;;;3.08;100.00
57232;BME280;43488;46.934;8.276;2022-12-26T06:21:19;96951.44;;;3.12;100.00
57232;BME280;43488;46.934;8.276;2022-12-26T06:23:49;96950.31;;;3.15;100.00
57232;BME280;43488;46.934;8.276;2022-12-26T06:26:17;96953.41;;;3.19;100.00
57232;BME280;43488;46.934;8.276;2022-12-26T06:28:44;96945.47;;;3.20;100.00
57232;BME280;43488;46.934;8.276;2022-12-26T06:31:19;96947.41;;;3.18;100.00
57232;BME280;43488;46.934;8.276;2022-12-26T06:33:49;96934.22;;;3.20;100.00
57232;BME280;43488;46.934;8.276;2022-12-26T06:36:22;96933.13;;;3.22;100.00
57232;BME280;43488;46.934;8.276;2022-12-26T06:38:49;96931.50;;;3.21;100.00
57232;BME280;43488;46.934;8.276;2022-12-26T06:41:20;96915.34;;;3.18;100.00
57232;BME280;43488;46.934;8.276;2022-12-26T06:43:49;96910.47;;;3.14;100.00
57232;BME280;43488;46.934;8.276;2022-12-26T06:46:20;96913.88;;;3.15;100.00
57232;BME280;43488;46.934;8.276;2022-12-26T06:48:49;96895.66;;;3.15;100.00
57232;BME280;43488;46.934;8.276;2022-12-26T06:51:23;96899.41;;;3.12;100.00
57232;BME280;43488;46.934;8.276;2022-12-26T06:53:52;96894.03;;;3.14;100.00
57232;BME280;43488;46.934;8.276;2022-12-26T06:56:23;96901.84;;;3.14;100.00
57232;BME280;43488;46.934;8.276;2022-12-26T06:58:56;96897.25;;;3.08;100.00
57232;BME280;43488;46.934;8.276;2022-12-26T07:01:25;96903.88;;;3.02;100.00
57232;BME280;43488;46.934;8.276;2022-12-26T07:03:54;96898.13;;;2.99;100.00
57232;BME280;43488;46.934;8.276;2022-12-26T07:06:25;96904.16;;;2.99;100.00
57232;BME280;43488;46.934;8.276;2022-12-26T07:09:03;96907.88;;;2.97;100.00
57232;BME280;43488;46.934;8.276;2022-12-26T07:11:34;96912.94;;;2.98;100.00
57232;BME280;43488;46.934;8.276;2022-12-26T07:14:03;96899.94;;;2.98;100.00
57232;BME280;43488;46.934;8.276;2022-12-26T07:16:34;96903.72;;;3.04;100.00
57232;BME280;43488;46.934;8.276;2022-12-26T07:19:04;96901.47;;;3.09;100.00
57232;BME280;43488;46.934;8.276;2022-12-26T07:21:33;96898.88;;;3.09;100.00
57232;BME280;43488;46.934;8.276;2022-12-26T07:24:02;96883.41;;;3.07;100.00
57232;BME280;43488;46.934;8.276;2022-12-26T07:26:29;96891.22;;;3.07;100.00
57232;BME280;43488;46.934;8.276;2022-12-26T07:28:58;96899.84;;;3.08;100.00
57232;BME280;43488;46.934;8.276;2022-12-26T07:31:26;96895.44;;;3.08;100.00
57232;BME280;43488;46.934;8.276;2022-12-26T07:33:55;96878.06;;;3.09;100.00
57232;BME280;43488;46.934;8.276;2022-12-26T07:36:23;96880.81;;;3.07;100.00
57232;BME280;43488;46.934;8.276;2022-12-26T07:38:52;96876.50;;;3.16;100.00
57232;BME280;43488;46.934;8.276;2022-12-26T07:41:21;96861.38;;;3.20;100.00
57232;BME280;43488;46.934;8.276;2022-12-26T07:44:09;96875.25;;;3.28;100.00
57232;BME280;43488;46.934;8.276;2022-12-26T07:46:37;96868.31;;;3.37;100.00
57232;BME280;43488;46.934;8.276;2022-12-26T07:49:07;96873.09;;;3.41;100.00
57232;BME280;43488;46.934;8.276;2022-12-26T07:51:34;96864.97;;;3.45;100.00
57232;BME280;43488;46.934;8.276;2022-12-26T07:54:01;96869.88;;;3.48;100.00
57232;BME280;43488;46.934;8.276;2022-12-26T07:56:31;96865.50;;;3.48;100.00
57232;BME280;43488;46.934;8.276;2022-12-26T07:58:59;96866.97;;;3.51;100.00
57232;BME280;43488;46.934;8.276;2022-12-26T08:01:27;96870.22;;;3.53;100.00
57232;BME280;43488;46.934;8.276;2022-12-26T08:03:55;96873.94;;;3.50;100.00
57232;BME280;43488;46.934;8.276;2022-12-26T08:06:22;96878.41;;;3.58;100.00
57232;BME280;43488;46.934;8.276;2022-12-26T08:08:50;96878.22;;;3.59;100.00
57232;BME280;43488;46.934;8.276;2022-12-26T08:11:21;96876.00;;;3.72;100.00
57232;BME280;43488;46.934;8.276;2022-12-26T08:13:52;96877.69;;;3.82;100.00
57232;BME280;43488;46.934;8.276;2022-12-26T08:16:20;96878.53;;;3.90;100.00
57232;BME280;43488;46.934;8.276;2022-12-26T08:18:47;96877.44;;;4.01;100.00
57232;BME280;43488;46.934;8.276;2022-12-26T08:21:14;96877.78;;;4.06;100.00
57232;BME280;43488;46.934;8.276;2022-12-26T08:23:42;96885.47;;;4.16;100.00
57232;BME280;43488;46.934;8.276;2022-12-26T08:26:12;96871.31;;;4.18;100.00
57232;BME280;43488;46.934;8.276;2022-12-26T08:28:49;96890.75;;;4.32;100.00
57232;BME280;43488;46.934;8.276;2022-12-26T08:31:18;96887.19;;;4.41;100.00
57232;BME280;43488;46.934;8.276;2022-12-26T08:33:47;96889.66;;;4.51;100.00
57232;BME280;43488;46.934;8.276;2022-12-26T08:36:15;96892.09;;;4.52;100.00
57232;BME280;43488;46.934;8.276;2022-12-26T08:38:45;96888.38;;;4.63;100.00
57232;BME280;43488;46.934;8.276;2022-12-26T08:41:12;96874.53;;;4.71;100.00
57232;BME280;43488;46.934;8.276;2022-12-26T08:43:40;96884.16;;;4.78;100.00
57232;BME280;43488;46.934;8.276;2022-12-26T08:46:10;96887.91;;;4.92;100.00
57232;BME280;43488;46.934;8.276;2022-12-26T08:48:39;96889.22;;;4.96;100.00
57232;BME280;43488;46.934;8.276;2022-12-26T08:51:11;96903.56;;;5.08;100.00
57232;BME280;43488;46.934;8.276;2022-12-26T08:53:40;96893.94;;;5.17;100.00
57232;BME280;43488;46.934;8.276;2022-12-26T08:56:13;96888.72;;;5.25;100.00
57232;BME280;43488;46.934;8.276;2022-12-26T08:58:42;96895.22;;;5.46;100.00
57232;BME280;43488;46.934;8.276;2022-12-26T09:01:25;96899.44;;;5.55;100.00
57232;BME280;43488;46.934;8.276;2022-12-26T09:03:55;96893.88;;;5.66;100.00
57232;BME280;43488;46.934;8.276;2022-12-26T09:06:24;96893.72;;;5.67;100.00
57232;BME280;43488;46.934;8.276;2022-12-26T09:08:53;96894.66;;;5.91;100.00
57232;BME280;43488;46.934;8.276;2022-12-26T09:11:24;96898.34;;;6.13;100.00
57232;BME280;43488;46.934;8.276;2022-12-26T09:13:58;96900.69;;;6.31;100.00
57232;BME280;43488;46.934;8.276;2022-12-26T09:16:36;96904.09;;;6.39;100.00
57232;BME280;43488;46.934;8.276;2022-12-26T09:19:05;96896.03;;;6.49;100.00
57232;BME280;43488;46.934;8.276;2022-12-26T09:21:32;96906.97;;;6.52;100.00
57232;BME280;43488;46.934;8.276;2022-12-26T09:24:05;96909.34;;;6.70;100.00
57232;BME280;43488;46.934;8.276;2022-12-26T09:26:33;96901.16;;;6.96;100.00
57232;BME280;43488;46.934;8.276;2022-12-26T09:29:01;96908.94;;;6.81;100.00
57232;BME280;43488;46.934;8.276;2022-12-26T09:31:31;96905.09;;;6.92;100.00
57232;BME280;43488;46.934;8.276;2022-12-26T09:34:05;96918.81;;;7.17;100.00
57232;BME280;43488;46.934;8.276;2022-12-26T09:36:35;96909.22;;;7.32;100.00
57232;BME280;43488;46.934;8.276;2022-12-26T09:39:06;96919.72;;;7.47;100.00
57232;BME280;43488;46.934;8.276;2022-12-26T09:45:18;96922.16;;;7.49;100.00
57232;BME280;43488;46.934;8.276;2022-12-26T09:48:08;96925.69;;;7.56;100.00
57232;BME280;43488;46.934;8.276;2022-12-26T09:50:38;96931.47;;;7.51;100.00
57232;BME280;43488;46.934;8.276;2022-12-26T09:53:16;96918.75;;;7.63;100.00
57232;BME280;43488;46.934;8.276;2022-12-26T09:55:58;96929.34;;;7.69;100.00
57232;BME280;43488;46.934;8.276;2022-12-26T10:01:31;96939.00;;;7.84;100.00
57232;BME280;43488;46.934;8.276;2022-12-26T10:04:34;96936.66;;;7.74;100.00
57232;BME280;43488;46.934;8.276;2022-12-26T10:07:20;96938.75;;;8.08;100.00
57232;BME280;43488;46.934;8.276;2022-12-26T10:10:13;96941.56;;;8.07;100.00
57232;BME280;43488;46.934;8.276;2022-12-26T10:18:48;96939.41;;;8.25;100.00
57232;BME280;43488;46.934;8.276;2022-12-26T10:21:47;96929.81;;;8.47;100.00
57232;BME280;43488;46.934;8.276;2022-12-26T10:24:22;96935.78;;;8.41;100.00
57232;BME280;43488;46.934;8.276;2022-12-26T10:27:06;96921.94;;;8.32;100.00
57232;BME280;43488;46.934;8.276;2022-12-26T10:29:55;96922.84;;;8.24;100.00
57232;BME280;43488;46.934;8.276;2022-12-26T10:32:36;96921.66;;;8.27;100.00
57232;BME280;43488;46.934;8.276;2022-12-26T10:35:30;96918.66;;;8.30;100.00
57232;BME280;43488;46.934;8.276;2022-12-26T10:38:21;96916.59;;;8.25;100.00
57232;BME280;43488;46.934;8.276;2022-12-26T10:40:53;96928.91;;;8.10;100.00
57232;BME280;43488;46.934;8.276;2022-12-26T10:43:33;96921.94;;;8.03;100.00
57232;BME280;43488;46.934;8.276;2022-12-26T10:46:38;96935.88;;;7.88;100.00
57232;BME280;43488;46.934;8.276;2022-12-26T10:49:10;96939.47;;;7.73;100.00
57232;BME280;43488;46.934;8.276;2022-12-26T10:51:38;96922.28;;;7.70;100.00
57232;BME280;43488;46.934;8.276;2022-12-26T10:54:16;96925.91;;;7.69;100.00
57232;BME280;43488;46.934;8.276;2022-12-26T10:56:47;96932.78;;;7.70;100.00
57232;BME280;43488;46.934;8.276;2022-12-26T10:59:43;96937.09;;;7.63;100.00
57232;BME280;43488;46.934;8.276;2022-12-26T11:02:29;96953.81;;;7.62;100.00
57232;BME280;43488;46.934;8.276;2022-12-26T11:05:08;96954.69;;;7.54;100.00
57232;BME280;43488;46.934;8.276;2022-12-26T11:07:52;96959.13;;;7.54;100.00
57232;BME280;43488;46.934;8.276;2022-12-26T11:10:24;96961.00;;;7.45;100.00
57232;BME280;43488;46.934;8.276;2022-12-26T11:13:01;96965.13;;;7.39;100.00
57232;BME280;43488;46.934;8.276;2022-12-26T11:15:48;96980.56;;;7.34;100.00
57232;BME280;43488;46.934;8.276;2022-12-26T11:18:37;96987.03;;;7.24;100.00
57232;BME280;43488;46.934;8.276;2022-12-26T11:23:46;96969.69;;;7.23;100.00
57232;BME280;43488;46.934;8.276;2022-12-26T11:26:27;96952.16;;;7.23;100.00
57232;BME280;43488;46.934;8.276;2022-12-26T11:29:30;96948.25;;;7.19;100.00
57232;BME280;43488;46.934;8.276;2022-12-26T11:32:01;96953.03;;;7.16;100.00
57232;BME280;43488;46.934;8.276;2022-12-26T11:34:38;96933.94;;;7.07;100.00
57232;BME280;43488;46.934;8.276;2022-12-26T11:37:29;96945.69;;;7.11;100.00
57232;BME280;43488;46.934;8.276;2022-12-26T11:39:57;96938.66;;;7.11;100.00
57232;BME280;43488;46.934;8.276;2022-12-26T11:42:26;96917.00;;;7.18;100.00
57232;BME280;43488;46.934;8.276;2022-12-26T11:44:55;96928.13;;;7.20;100.00
57232;BME280;43488;46.934;8.276;2022-12-26T11:47:28;96919.50;;;7.11;100.00
57232;BME280;43488;46.934;8.276;2022-12-26T11:50:15;96926.22;;;7.13;100.00
57232;BME280;43488;46.934;8.276;2022-12-26T11:55:38;96935.69;;;7.15;100.00
57232;BME280;43488;46.934;8.276;2022-12-26T12:00:43;96946.81;;;7.17;100.00
57232;BME280;43488;46.934;8.276;2022-12-26T12:03:45;96955.16;;;7.12;100.00
57232;BME280;43488;46.934;8.276;2022-12-26T12:09:20;96968.81;;;7.07;100.00
57232;BME280;43488;46.934;8.276;2022-12-26T12:14:58;96973.84;;;7.09;100.00
57232;BME280;43488;46.934;8.276;2022-12-26T12:17:59;96969.44;;;7.09;100.00
57232;BME280;43488;46.934;8.276;2022-12-26T12:23:46;96990.91;;;7.05;100.00
57232;BME280;43488;46.934;8.276;2022-12-26T12:32:09;96984.50;;;7.07;100.00
57232;BME280;43488;46.934;8.276;2022-12-26T12:34:50;96975.22;;;7.05;100.00
57232;BME280;43488;46.934;8.276;2022-12-26T12:37:32;96981.41;;;7.04;100.00
57232;BME280;43488;46.934;8.276;2022-12-26T12:40:40;96976.16;;;7.04;100.00
57232;BME280;43488;46.934;8.276;2022-12-26T12:58:45;96984.31;;;7.09;100.00
57232;BME280;43488;46.934;8.276;2022-12-26T13:01:26;96982.34;;;7.11;100.00
57232;BME280;43488;46.934;8.276;2022-12-26T13:04:15;96978.91;;;7.10;100.00
57232;BME280;43488;46.934;8.276;2022-12-26T13:06:55;96983.66;;;7.15;100.00
57232;BME280;43488;46.934;8.276;2022-12-26T13:09:36;96971.00;;;7.19;100.00
57232;BME280;43488;46.934;8.276;2022-12-26T13:12:22;96971.13;;;7.25;100.00
57232;BME280;43488;46.934;8.276;2022-12-26T13:15:02;96970.94;;;7.27;100.00
57232;BME280;43488;46.934;8.276;2022-12-26T13:18:06;96949.81;;;7.28;100.00
57232;BME280;43488;46.934;8.276;2022-12-26T13:20:45;96961.91;;;7.29;100.00
57232;BME280;43488;46.934;8.276;2022-12-26T13:26:27;96967.91;;;7.38;100.00
57232;BME280;43488;46.934;8.276;2022-12-26T13:31:59;96962.03;;;7.36;100.00
57232;BME280;43488;46.934;8.276;2022-12-26T13:34:27;96948.94;;;7.36;100.00
57232;BME280;43488;46.934;8.276;2022-12-26T13:36:57;96954.19;;;7.36;100.00
57232;BME280;43488;46.934;8.276;2022-12-26T13:44:55;96960.34;;;7.43;100.00
57232;BME280;43488;46.934;8.276;2022-12-26T13:47:43;96954.31;;;7.43;100.00
57232;BME280;43488;46.934;8.276;2022-12-26T13:50:55;96968.22;;;7.43;100.00
57232;BME280;43488;46.934;8.276;2022-12-26T13:58:58;96976.94;;;7.35;100.00
57232;BME280;43488;46.934;8.276;2022-12-26T14:14:40;97003.81;;;7.29;100.00
57232;BME280;43488;46.934;8.276;2022-12-26T14:25:58;96969.84;;;7.21;100.00
57232;BME280;43488;46.934;8.276;2022-12-26T14:28:57;96973.13;;;7.23;100.00
57232;BME280;43488;46.934;8.276;2022-12-26T14:32:05;96975.75;;;7.23;100.00
57232;BME280;43488;46.934;8.276;2022-12-26T14:35:36;96960.66;;;7.25;100.00
57232;BME280;43488;46.934;8.276;2022-12-26T14:41:19;96953.25;;;7.29;100.00
57232;BME280;43488;46.934;8.276;2022-12-26T14:54:52;96954.44;;;7.26;100.00
57232;BME280;43488;46.934;8.276;2022-12-26T14:57:49;96962.66;;;7.23;100.00
57232;BME280;43488;46.934;8.276;2022-12-26T15:00:26;96965.91;;;7.25;100.00
57232;BME280;43488;46.934;8.276;2022-12-26T15:05:37;96960.03;;;7.23;100.00
57232;BME280;43488;46.934;8.276;2022-12-26T15:12:01;96974.44;;;7.19;100.00
57232;BME280;43488;46.934;8.276;2022-12-26T15:39:49;96996.06;;;7.13;100.00
57232;BME280;43488;46.934;8.276;2022-12-26T15:46:07;97027.84;;;7.10;100.00
57232;BME280;43488;46.934;8.276;2022-12-26T16:00:58;97063.50;;;7.11;100.00
57232;BME280;43488;46.934;8.276;2022-12-26T16:03:51;97067.94;;;7.10;100.00
57232;BME280;43488;46.934;8.276;2022-12-26T16:07:05;97094.28;;;7.09;100.00
57232;BME280;43488;46.934;8.276;2022-12-26T16:09:47;97078.94;;;7.06;100.00
57232;BME280;43488;46.934;8.276;2022-12-26T16:12:33;97087.78;;;7.05;100.00
57232;BME280;43488;46.934;8.276;2022-12-26T16:17:40;97091.03;;;7.07;100.00
57232;BME280;43488;46.934;8.276;2022-12-26T16:23:24;97100.69;;;7.06;100.00
57232;BME280;43488;46.934;8.276;2022-12-26T16:25:54;97121.81;;;7.05;100.00
57232;BME280;43488;46.934;8.276;2022-12-26T16:28:38;97101.00;;;7.03;100.00
57232;BME280;43488;46.934;8.276;2022-12-26T16:31:07;97089.41;;;7.06;100.00
57232;BME280;43488;46.934;8.276;2022-12-26T16:33:41;97081.88;;;7.03;100.00
57232;BME280;43488;46.934;8.276;2022-12-26T16:36:18;97094.97;;;7.03;100.00
57232;BME280;43488;46.934;8.276;2022-12-26T16:38:47;97114.16;;;6.95;100.00
57232;BME280;43488;46.934;8.276;2022-12-26T16:41:24;97121.84;;;6.97;100.00
57232;BME280;43488;46.934;8.276;2022-12-26T16:43:53;97129.88;;;6.95;100.00
57232;BME280;43488;46.934;8.276;2022-12-26T16:46:25;97124.63;;;6.95;100.00
57232;BME280;43488;46.934;8.276;2022-12-26T16:48:56;97127.88;;;6.97;100.00
57232;BME280;43488;46.934;8.276;2022-12-26T16:51:47;97135.56;;;6.99;100.00
57232;BME280;43488;46.934;8.276;2022-12-26T16:57:01;97155.69;;;6.98;100.00
57232;BME280;43488;46.934;8.276;2022-12-26T16:59:51;97145.69;;;7.02;100.00